KCAK

Akron-Canton Regional Airport

Airport
ICAO code
KCAK
IATA Code
CAK
Summary
ICAO Region
NAM
ICAO Territory
Location

Green, Ohio

Serving
Cleveland
Elevation
1228 ft
Coordinates
40° 54' 54" N , 81° 26' 13" W
KCC
Airport WX
Cumulonimbus
Metar
KCAK 181351Z 00000KT 3SM BR OVC005 18/17 A2993 RMK AO2 SFC VIS 4 SLP131 T01830167 $

Description

Akron-Canton Regional Airport is a public use airport, located 10 nm southeast of Akron, in the city of Green, in southern Summit County, Ohio.

Airport map

Aerial View

SKYbrary Partners:

Safety knowledge contributed by: